Main page
METAR-TAF:

METAR-TAF

Airports :

Valencia Airport

Valencia, Spain

latitude: 39-30N, longitude: 000-28W, elevation: 69 m

Current weather observation

The report was made 14 minutes ago, at 01:30 UTC
Wind 3 kt from the West, varying between Southwest and Northwest
Temperature 21°C
Humidity 73%
Pressure 1017 hPa
Visibility 10 km or more
no clouds below 1500 m and no cumulonimbus

METAR: LEVC 220130Z 27003KT 230V320 CAVOK 21/16 Q1017 NOSIG

Time: 03:44 (01:44 UTC)

Forecast

The report was made 2 hours and 44 minutes ago, at 23:00 UTC
Forecast valid from 22 at 00 UTC to 22 at 24 UTC
Wind 3 kt from variable directions
Visibility 10 km or more
no clouds below 1500 m and no cumulonimbus
Becoming
from 22 at 09 UTC to 22 at 11 UTC
Wind 10 kt from the East/Southeast
Becoming
from 22 at 20 UTC to 22 at 22 UTC
Wind 5 kt from the North

TAF: LEVC 212300Z 2200/2224 VRB03KT CAVOK TX34/2213Z TN19/2206Z BECMG 2209/2211 12010KT BECMG 2220/2222 36005KT

Weather observations and forecasts of more than 4000 airports (METAR and TAF reports).

The available stations are represented by yellow and red dots on the map.

Hover mouse over dot to see the name of the station.

Then click to see weather observations and forecasts.

To change the map : click on the green buttons with a black cross to zoom in, on the green button with a dash to zoom out, or on the green arrows for adjacent maps.


METAR-TAF: